sensor_id;sensor_type;location;lat;lon;timestamp;temperature;humidity
67379;DHT22;54262;44.642;-0.974;2023-08-30T00:00:43;16.30;99.90
67379;DHT22;54262;44.642;-0.974;2023-08-30T00:03:10;16.30;99.90
67379;DHT22;54262;44.642;-0.974;2023-08-30T00:05:41;16.30;99.90
67379;DHT22;54262;44.642;-0.974;2023-08-30T00:08:07;16.30;99.90
67379;DHT22;54262;44.642;-0.974;2023-08-30T00:10:33;16.20;99.90
67379;DHT22;54262;44.642;-0.974;2023-08-30T00:12:59;16.20;99.90
67379;DHT22;54262;44.642;-0.974;2023-08-30T00:15:25;16.40;99.90
67379;DHT22;54262;44.642;-0.974;2023-08-30T00:17:50;16.40;99.90
67379;DHT22;54262;44.642;-0.974;2023-08-30T00:20:20;16.40;99.90
67379;DHT22;54262;44.642;-0.974;2023-08-30T00:22:47;16.40;99.90
67379;DHT22;54262;44.642;-0.974;2023-08-30T00:25:14;16.40;99.90
67379;DHT22;54262;44.642;-0.974;2023-08-30T00:27:39;16.50;99.90
67379;DHT22;54262;44.642;-0.974;2023-08-30T00:30:06;16.50;99.90
67379;DHT22;54262;44.642;-0.974;2023-08-30T00:32:33;16.60;99.90
67379;DHT22;54262;44.642;-0.974;2023-08-30T00:34:59;16.60;99.90
67379;DHT22;54262;44.642;-0.974;2023-08-30T00:37:25;16.60;99.90
67379;DHT22;54262;44.642;-0.974;2023-08-30T00:39:50;16.50;99.90
67379;DHT22;54262;44.642;-0.974;2023-08-30T00:42:16;16.30;99.90
67379;DHT22;54262;44.642;-0.974;2023-08-30T00:44:42;16.20;99.90
67379;DHT22;54262;44.642;-0.974;2023-08-30T00:47:07;16.20;99.90
67379;DHT22;54262;44.642;-0.974;2023-08-30T00:49:33;16.20;99.90
67379;DHT22;54262;44.642;-0.974;2023-08-30T00:52:02;16.20;99.90
67379;DHT22;54262;44.642;-0.974;2023-08-30T00:54:29;16.20;99.90
67379;DHT22;54262;44.642;-0.974;2023-08-30T00:56:55;16.20;99.90
67379;DHT22;54262;44.642;-0.974;2023-08-30T00:59:21;16.10;99.90
67379;DHT22;54262;44.642;-0.974;2023-08-30T01:01:50;16.10;99.90
67379;DHT22;54262;44.642;-0.974;2023-08-30T01:04:19;16.10;99.90
67379;DHT22;54262;44.642;-0.974;2023-08-30T01:06:45;16.10;99.90
67379;DHT22;54262;44.642;-0.974;2023-08-30T01:09:11;16.10;99.90
67379;DHT22;54262;44.642;-0.974;2023-08-30T01:11:50;16.40;99.90
67379;DHT22;54262;44.642;-0.974;2023-08-30T01:14:21;16.30;99.90
67379;DHT22;54262;44.642;-0.974;2023-08-30T01:16:48;16.30;99.90
67379;DHT22;54262;44.642;-0.974;2023-08-30T01:21:56;16.30;99.90
67379;DHT22;54262;44.642;-0.974;2023-08-30T01:24:28;16.30;99.90
67379;DHT22;54262;44.642;-0.974;2023-08-30T01:27:08;16.30;99.90
67379;DHT22;54262;44.642;-0.974;2023-08-30T01:29:36;16.30;99.90
67379;DHT22;54262;44.642;-0.974;2023-08-30T01:32:04;16.20;99.90
67379;DHT22;54262;44.642;-0.974;2023-08-30T01:34:31;16.20;99.90
67379;DHT22;54262;44.642;-0.974;2023-08-30T01:36:58;16.20;99.90
67379;DHT22;54262;44.642;-0.974;2023-08-30T01:39:24;16.20;99.90
67379;DHT22;54262;44.642;-0.974;2023-08-30T01:41:51;16.40;99.90
67379;DHT22;54262;44.642;-0.974;2023-08-30T01:44:21;16.40;99.90
67379;DHT22;54262;44.642;-0.974;2023-08-30T01:46:47;16.50;99.90
67379;DHT22;54262;44.642;-0.974;2023-08-30T01:49:14;16.40;99.90
67379;DHT22;54262;44.642;-0.974;2023-08-30T01:51:40;16.40;99.90
67379;DHT22;54262;44.642;-0.974;2023-08-30T01:54:06;16.40;99.90
67379;DHT22;54262;44.642;-0.974;2023-08-30T01:56:36;16.40;99.90
67379;DHT22;54262;44.642;-0.974;2023-08-30T01:59:02;16.50;99.90
67379;DHT22;54262;44.642;-0.974;2023-08-30T02:01:28;16.50;99.90
67379;DHT22;54262;44.642;-0.974;2023-08-30T02:03:56;16.50;99.90
67379;DHT22;54262;44.642;-0.974;2023-08-30T02:06:28;16.50;99.90
67379;DHT22;54262;44.642;-0.974;2023-08-30T02:10:01;16.50;99.90
67379;DHT22;54262;44.642;-0.974;2023-08-30T02:11:55;16.40;99.90
67379;DHT22;54262;44.642;-0.974;2023-08-30T02:14:23;16.50;99.90
67379;DHT22;54262;44.642;-0.974;2023-08-30T02:16:51;16.50;99.90
67379;DHT22;54262;44.642;-0.974;2023-08-30T02:19:17;16.70;99.90
67379;DHT22;54262;44.642;-0.974;2023-08-30T02:21:46;16.60;99.90
67379;DHT22;54262;44.642;-0.974;2023-08-30T02:24:13;16.60;99.90
67379;DHT22;54262;44.642;-0.974;2023-08-30T02:26:38;16.70;99.90
67379;DHT22;54262;44.642;-0.974;2023-08-30T02:29:04;16.70;99.90
67379;DHT22;54262;44.642;-0.974;2023-08-30T02:31:30;16.70;99.90
67379;DHT22;54262;44.642;-0.974;2023-08-30T02:33:56;16.80;99.90
67379;DHT22;54262;44.642;-0.974;2023-08-30T02:36:21;16.70;99.90
67379;DHT22;54262;44.642;-0.974;2023-08-30T02:38:47;16.70;99.90
67379;DHT22;54262;44.642;-0.974;2023-08-30T02:41:12;16.60;99.90
67379;DHT22;54262;44.642;-0.974;2023-08-30T02:43:38;16.50;99.90
67379;DHT22;54262;44.642;-0.974;2023-08-30T02:46:04;16.50;99.90
67379;DHT22;54262;44.642;-0.974;2023-08-30T02:48:34;16.50;99.90
67379;DHT22;54262;44.642;-0.974;2023-08-30T02:50:59;16.60;99.90
67379;DHT22;54262;44.642;-0.974;2023-08-30T02:53:25;16.50;99.90
67379;DHT22;54262;44.642;-0.974;2023-08-30T02:55:51;16.50;99.90
67379;DHT22;54262;44.642;-0.974;2023-08-30T02:58:16;16.40;99.90
67379;DHT22;54262;44.642;-0.974;2023-08-30T03:00:42;16.40;99.90
67379;DHT22;54262;44.642;-0.974;2023-08-30T03:03:08;16.50;99.90
67379;DHT22;54262;44.642;-0.974;2023-08-30T03:05:36;16.50;99.90
67379;DHT22;54262;44.642;-0.974;2023-08-30T03:08:04;16.60;99.90
67379;DHT22;54262;44.642;-0.974;2023-08-30T03:10:29;16.80;99.90
67379;DHT22;54262;44.642;-0.974;2023-08-30T03:12:55;17.00;99.90
67379;DHT22;54262;44.642;-0.974;2023-08-30T03:15:21;17.00;99.90
67379;DHT22;54262;44.642;-0.974;2023-08-30T03:17:46;16.90;99.90
67379;DHT22;54262;44.642;-0.974;2023-08-30T03:20:12;17.00;99.90
67379;DHT22;54262;44.642;-0.974;2023-08-30T03:22:37;16.90;99.90
67379;DHT22;54262;44.642;-0.974;2023-08-30T03:25:03;16.70;99.90
67379;DHT22;54262;44.642;-0.974;2023-08-30T03:27:30;16.60;99.90
67379;DHT22;54262;44.642;-0.974;2023-08-30T03:29:55;16.40;99.90
67379;DHT22;54262;44.642;-0.974;2023-08-30T03:32:21;16.30;99.90
67379;DHT22;54262;44.642;-0.974;2023-08-30T03:34:48;16.20;99.90
67379;DHT22;54262;44.642;-0.974;2023-08-30T03:37:14;16.00;99.90
67379;DHT22;54262;44.642;-0.974;2023-08-30T03:39:40;15.80;99.90
67379;DHT22;54262;44.642;-0.974;2023-08-30T03:42:06;15.60;99.90
67379;DHT22;54262;44.642;-0.974;2023-08-30T03:44:32;15.40;99.90
67379;DHT22;54262;44.642;-0.974;2023-08-30T03:46:58;15.30;99.90
67379;DHT22;54262;44.642;-0.974;2023-08-30T03:49:24;15.40;99.90
67379;DHT22;54262;44.642;-0.974;2023-08-30T03:51:49;15.40;99.90
67379;DHT22;54262;44.642;-0.974;2023-08-30T03:54:15;15.30;99.90
67379;DHT22;54262;44.642;-0.974;2023-08-30T03:56:44;15.30;99.90
67379;DHT22;54262;44.642;-0.974;2023-08-30T03:59:13;15.30;99.90
67379;DHT22;54262;44.642;-0.974;2023-08-30T04:01:39;15.30;99.90
67379;DHT22;54262;44.642;-0.974;2023-08-30T04:04:05;15.20;99.90
67379;DHT22;54262;44.642;-0.974;2023-08-30T04:06:33;15.10;99.90
67379;DHT22;54262;44.642;-0.974;2023-08-30T04:09:00;15.10;99.90
67379;DHT22;54262;44.642;-0.974;2023-08-30T04:11:26;15.10;99.90
67379;DHT22;54262;44.642;-0.974;2023-08-30T04:13:52;15.10;99.90
67379;DHT22;54262;44.642;-0.974;2023-08-30T04:16:18;15.10;99.90
67379;DHT22;54262;44.642;-0.974;2023-08-30T04:18:44;15.30;99.90
67379;DHT22;54262;44.642;-0.974;2023-08-30T04:21:12;15.30;99.90
67379;DHT22;54262;44.642;-0.974;2023-08-30T04:23:38;15.40;99.90
67379;DHT22;54262;44.642;-0.974;2023-08-30T04:26:04;15.30;99.90
67379;DHT22;54262;44.642;-0.974;2023-08-30T04:28:29;15.30;99.90
67379;DHT22;54262;44.642;-0.974;2023-08-30T04:30:55;15.20;99.90
67379;DHT22;54262;44.642;-0.974;2023-08-30T04:33:22;15.10;99.90
67379;DHT22;54262;44.642;-0.974;2023-08-30T04:35:52;14.90;99.90
67379;DHT22;54262;44.642;-0.974;2023-08-30T04:38:18;14.90;99.90
67379;DHT22;54262;44.642;-0.974;2023-08-30T04:40:43;14.80;99.90
67379;DHT22;54262;44.642;-0.974;2023-08-30T04:43:09;14.70;99.90
67379;DHT22;54262;44.642;-0.974;2023-08-30T04:45:35;14.80;99.90
67379;DHT22;54262;44.642;-0.974;2023-08-30T04:48:01;14.80;99.90
67379;DHT22;54262;44.642;-0.974;2023-08-30T04:50:26;14.60;99.90
67379;DHT22;54262;44.642;-0.974;2023-08-30T04:52:52;14.70;99.90
67379;DHT22;54262;44.642;-0.974;2023-08-30T04:55:18;14.70;99.90
67379;DHT22;54262;44.642;-0.974;2023-08-30T04:57:43;14.80;99.90
67379;DHT22;54262;44.642;-0.974;2023-08-30T05:00:13;14.80;99.90
67379;DHT22;54262;44.642;-0.974;2023-08-30T05:02:39;15.00;99.90
67379;DHT22;54262;44.642;-0.974;2023-08-30T05:05:06;15.00;99.90
67379;DHT22;54262;44.642;-0.974;2023-08-30T05:07:35;15.00;99.90
67379;DHT22;54262;44.642;-0.974;2023-08-30T05:10:04;14.90;99.90
67379;DHT22;54262;44.642;-0.974;2023-08-30T05:12:29;14.90;99.90
67379;DHT22;54262;44.642;-0.974;2023-08-30T05:14:58;14.90;99.90
67379;DHT22;54262;44.642;-0.974;2023-08-30T05:17:24;15.00;99.90
67379;DHT22;54262;44.642;-0.974;2023-08-30T05:19:49;15.10;99.90
67379;DHT22;54262;44.642;-0.974;2023-08-30T05:22:15;15.20;99.90
67379;DHT22;54262;44.642;-0.974;2023-08-30T05:24:41;15.20;99.90
67379;DHT22;54262;44.642;-0.974;2023-08-30T05:27:06;15.20;99.90
67379;DHT22;54262;44.642;-0.974;2023-08-30T05:29:35;15.40;99.90
67379;DHT22;54262;44.642;-0.974;2023-08-30T05:32:00;15.40;99.90
67379;DHT22;54262;44.642;-0.974;2023-08-30T05:34:26;15.40;99.90
67379;DHT22;54262;44.642;-0.974;2023-08-30T05:36:53;15.40;99.90
67379;DHT22;54262;44.642;-0.974;2023-08-30T05:39:19;15.60;99.90
67379;DHT22;54262;44.642;-0.974;2023-08-30T05:41:44;15.50;99.90
67379;DHT22;54262;44.642;-0.974;2023-08-30T05:44:10;15.50;99.90
67379;DHT22;54262;44.642;-0.974;2023-08-30T05:46:36;15.50;99.90
67379;DHT22;54262;44.642;-0.974;2023-08-30T05:49:01;15.50;99.90
67379;DHT22;54262;44.642;-0.974;2023-08-30T05:51:28;15.50;99.90
67379;DHT22;54262;44.642;-0.974;2023-08-30T05:53:54;15.50;99.90
67379;DHT22;54262;44.642;-0.974;2023-08-30T05:56:20;15.60;99.90
67379;DHT22;54262;44.642;-0.974;2023-08-30T05:58:46;15.80;99.90
67379;DHT22;54262;44.642;-0.974;2023-08-30T06:01:11;15.80;99.90
67379;DHT22;54262;44.642;-0.974;2023-08-30T06:03:37;15.80;99.90
67379;DHT22;54262;44.642;-0.974;2023-08-30T06:06:03;15.90;99.90
67379;DHT22;54262;44.642;-0.974;2023-08-30T06:08:31;16.10;99.90
67379;DHT22;54262;44.642;-0.974;2023-08-30T06:10:59;16.00;99.90
67379;DHT22;54262;44.642;-0.974;2023-08-30T06:13:25;16.00;99.90
67379;DHT22;54262;44.642;-0.974;2023-08-30T06:15:51;16.00;99.90
67379;DHT22;54262;44.642;-0.974;2023-08-30T06:18:17;15.90;99.90
67379;DHT22;54262;44.642;-0.974;2023-08-30T06:20:43;16.00;99.90
67379;DHT22;54262;44.642;-0.974;2023-08-30T06:23:09;16.10;99.90
67379;DHT22;54262;44.642;-0.974;2023-08-30T06:25:35;16.10;99.90
67379;DHT22;54262;44.642;-0.974;2023-08-30T06:28:02;16.10;99.90
67379;DHT22;54262;44.642;-0.974;2023-08-30T06:30:29;16.30;99.90
67379;DHT22;54262;44.642;-0.974;2023-08-30T06:32:58;16.40;99.90
67379;DHT22;54262;44.642;-0.974;2023-08-30T06:35:24;16.60;99.90
67379;DHT22;54262;44.642;-0.974;2023-08-30T06:37:50;16.80;99.90
67379;DHT22;54262;44.642;-0.974;2023-08-30T06:40:15;16.60;99.90
67379;DHT22;54262;44.642;-0.974;2023-08-30T06:42:41;16.50;99.90
67379;DHT22;54262;44.642;-0.974;2023-08-30T06:45:07;16.60;99.90
67379;DHT22;54262;44.642;-0.974;2023-08-30T06:47:33;16.70;99.90
67379;DHT22;54262;44.642;-0.974;2023-08-30T06:50:00;16.70;99.90
67379;DHT22;54262;44.642;-0.974;2023-08-30T06:52:26;16.80;99.90
67379;DHT22;54262;44.642;-0.974;2023-08-30T06:54:51;16.80;99.90
67379;DHT22;54262;44.642;-0.974;2023-08-30T06:57:17;16.90;99.90
67379;DHT22;54262;44.642;-0.974;2023-08-30T06:59:43;17.10;99.90
67379;DHT22;54262;44.642;-0.974;2023-08-30T07:02:08;17.10;99.90
67379;DHT22;54262;44.642;-0.974;2023-08-30T07:04:34;17.20;99.90
67379;DHT22;54262;44.642;-0.974;2023-08-30T07:06:59;17.30;99.90
67379;DHT22;54262;44.642;-0.974;2023-08-30T07:09:30;17.40;99.90
67379;DHT22;54262;44.642;-0.974;2023-08-30T07:11:59;17.40;99.90
67379;DHT22;54262;44.642;-0.974;2023-08-30T07:14:25;17.50;99.90
67379;DHT22;54262;44.642;-0.974;2023-08-30T07:16:51;17.60;99.90
67379;DHT22;54262;44.642;-0.974;2023-08-30T07:19:18;17.60;99.90
67379;DHT22;54262;44.642;-0.974;2023-08-30T07:21:44;17.60;99.90
67379;DHT22;54262;44.642;-0.974;2023-08-30T07:24:09;17.70;99.90
67379;DHT22;54262;44.642;-0.974;2023-08-30T07:26:36;17.80;99.90
67379;DHT22;54262;44.642;-0.974;2023-08-30T07:29:02;17.80;99.90
67379;DHT22;54262;44.642;-0.974;2023-08-30T07:31:30;17.70;99.90
67379;DHT22;54262;44.642;-0.974;2023-08-30T07:33:56;17.80;99.90
67379;DHT22;54262;44.642;-0.974;2023-08-30T07:36:23;17.90;99.90
67379;DHT22;54262;44.642;-0.974;2023-08-30T07:38:49;18.00;99.90
67379;DHT22;54262;44.642;-0.974;2023-08-30T07:41:14;18.00;99.90
67379;DHT22;54262;44.642;-0.974;2023-08-30T07:43:40;18.00;99.90
67379;DHT22;54262;44.642;-0.974;2023-08-30T07:46:06;18.00;99.90
67379;DHT22;54262;44.642;-0.974;2023-08-30T07:48:31;18.10;99.90
67379;DHT22;54262;44.642;-0.974;2023-08-30T07:50:57;18.20;99.90
67379;DHT22;54262;44.642;-0.974;2023-08-30T07:53:22;18.20;99.90
67379;DHT22;54262;44.642;-0.974;2023-08-30T07:55:51;18.20;99.90
67379;DHT22;54262;44.642;-0.974;2023-08-30T07:58:17;18.30;99.90
67379;DHT22;54262;44.642;-0.974;2023-08-30T08:00:43;18.30;99.90
67379;DHT22;54262;44.642;-0.974;2023-08-30T08:03:09;18.40;99.90
67379;DHT22;54262;44.642;-0.974;2023-08-30T08:05:36;18.40;99.90
67379;DHT22;54262;44.642;-0.974;2023-08-30T08:08:01;18.50;99.90
67379;DHT22;54262;44.642;-0.974;2023-08-30T08:10:34;18.60;99.90
67379;DHT22;54262;44.642;-0.974;2023-08-30T08:13:02;18.60;99.90
67379;DHT22;54262;44.642;-0.974;2023-08-30T08:15:29;18.80;99.90
67379;DHT22;54262;44.642;-0.974;2023-08-30T08:17:59;18.80;99.90
67379;DHT22;54262;44.642;-0.974;2023-08-30T08:20:25;18.90;99.90
67379;DHT22;54262;44.642;-0.974;2023-08-30T08:22:51;19.00;99.90
67379;DHT22;54262;44.642;-0.974;2023-08-30T08:25:20;19.10;99.90
67379;DHT22;54262;44.642;-0.974;2023-08-30T08:27:50;19.10;99.90
67379;DHT22;54262;44.642;-0.974;2023-08-30T08:30:19;19.20;99.90
67379;DHT22;54262;44.642;-0.974;2023-08-30T08:32:46;19.30;99.90
67379;DHT22;54262;44.642;-0.974;2023-08-30T08:35:13;19.40;99.90
67379;DHT22;54262;44.642;-0.974;2023-08-30T08:37:39;19.40;99.90
67379;DHT22;54262;44.642;-0.974;2023-08-30T08:40:05;19.40;99.90
67379;DHT22;54262;44.642;-0.974;2023-08-30T08:42:34;19.40;99.90
67379;DHT22;54262;44.642;-0.974;2023-08-30T08:45:02;19.50;99.90
67379;DHT22;54262;44.642;-0.974;2023-08-30T08:47:30;19.60;99.90
67379;DHT22;54262;44.642;-0.974;2023-08-30T08:49:57;19.70;99.90
67379;DHT22;54262;44.642;-0.974;2023-08-30T08:52:26;19.80;99.90
67379;DHT22;54262;44.642;-0.974;2023-08-30T08:54:52;19.90;99.90
67379;DHT22;54262;44.642;-0.974;2023-08-30T08:57:19;19.90;99.90
67379;DHT22;54262;44.642;-0.974;2023-08-30T08:59:44;20.00;99.90
67379;DHT22;54262;44.642;-0.974;2023-08-30T09:02:13;20.00;99.90
67379;DHT22;54262;44.642;-0.974;2023-08-30T09:04:39;20.10;99.90
67379;DHT22;54262;44.642;-0.974;2023-08-30T09:07:06;20.10;99.90
67379;DHT22;54262;44.642;-0.974;2023-08-30T09:09:33;20.20;99.90
67379;DHT22;54262;44.642;-0.974;2023-08-30T09:12:01;20.30;99.90
67379;DHT22;54262;44.642;-0.974;2023-08-30T09:14:29;20.30;99.90
67379;DHT22;54262;44.642;-0.974;2023-08-30T09:17:02;20.40;99.90
67379;DHT22;54262;44.642;-0.974;2023-08-30T09:19:29;20.40;99.90
67379;DHT22;54262;44.642;-0.974;2023-08-30T09:21:58;20.50;99.90
67379;DHT22;54262;44.642;-0.974;2023-08-30T09:24:24;20.50;99.90
67379;DHT22;54262;44.642;-0.974;2023-08-30T09:26:54;20.40;99.90
67379;DHT22;54262;44.642;-0.974;2023-08-30T09:29:20;20.40;99.90
67379;DHT22;54262;44.642;-0.974;2023-08-30T09:31:52;20.50;99.90
67379;DHT22;54262;44.642;-0.974;2023-08-30T09:34:27;20.50;99.90
67379;DHT22;54262;44.642;-0.974;2023-08-30T09:36:53;20.50;99.90
67379;DHT22;54262;44.642;-0.974;2023-08-30T09:39:19;20.50;99.90
67379;DHT22;54262;44.642;-0.974;2023-08-30T09:41:49;20.50;99.90
67379;DHT22;54262;44.642;-0.974;2023-08-30T09:44:20;20.60;99.90
67379;DHT22;54262;44.642;-0.974;2023-08-30T09:46:50;20.70;99.90
67379;DHT22;54262;44.642;-0.974;2023-08-30T09:49:24;20.70;99.90
67379;DHT22;54262;44.642;-0.974;2023-08-30T09:51:51;20.80;99.90
67379;DHT22;54262;44.642;-0.974;2023-08-30T09:54:19;21.00;99.90
67379;DHT22;54262;44.642;-0.974;2023-08-30T09:56:46;21.20;99.90
67379;DHT22;54262;44.642;-0.974;2023-08-30T09:59:14;21.30;99.90
67379;DHT22;54262;44.642;-0.974;2023-08-30T10:01:43;21.30;99.90
67379;DHT22;54262;44.642;-0.974;2023-08-30T10:04:10;21.40;99.90
67379;DHT22;54262;44.642;-0.974;2023-08-30T10:06:39;21.40;99.90
67379;DHT22;54262;44.642;-0.974;2023-08-30T10:09:07;21.40;99.90
67379;DHT22;54262;44.642;-0.974;2023-08-30T10:11:37;21.40;99.90
67379;DHT22;54262;44.642;-0.974;2023-08-30T10:14:05;21.40;99.90
67379;DHT22;54262;44.642;-0.974;2023-08-30T10:16:47;21.50;99.90
67379;DHT22;54262;44.642;-0.974;2023-08-30T10:19:29;21.60;99.90
67379;DHT22;54262;44.642;-0.974;2023-08-30T10:22:05;21.60;99.90
67379;DHT22;54262;44.642;-0.974;2023-08-30T10:24:45;21.60;99.90
67379;DHT22;54262;44.642;-0.974;2023-08-30T10:27:13;21.80;99.90
67379;DHT22;54262;44.642;-0.974;2023-08-30T10:29:40;21.80;99.90
67379;DHT22;54262;44.642;-0.974;2023-08-30T10:32:07;21.90;99.90
67379;DHT22;54262;44.642;-0.974;2023-08-30T10:34:34;21.90;99.90
67379;DHT22;54262;44.642;-0.974;2023-08-30T10:37:00;22.00;99.90
67379;DHT22;54262;44.642;-0.974;2023-08-30T10:39:37;22.20;99.90
67379;DHT22;54262;44.642;-0.974;2023-08-30T10:52:25;22.60;99.90
67379;DHT22;54262;44.642;-0.974;2023-08-30T10:54:51;22.70;99.90
67379;DHT22;54262;44.642;-0.974;2023-08-30T11:02:28;22.70;99.90
67379;DHT22;54262;44.642;-0.974;2023-08-30T11:04:53;22.80;99.90
67379;DHT22;54262;44.642;-0.974;2023-08-30T11:07:19;22.80;99.90
67379;DHT22;54262;44.642;-0.974;2023-08-30T11:09:47;22.90;99.90
67379;DHT22;54262;44.642;-0.974;2023-08-30T11:12:12;23.00;99.90
67379;DHT22;54262;44.642;-0.974;2023-08-30T11:14:40;22.90;99.90
67379;DHT22;54262;44.642;-0.974;2023-08-30T11:17:11;23.10;99.90
67379;DHT22;54262;44.642;-0.974;2023-08-30T11:19:37;23.30;99.90
67379;DHT22;54262;44.642;-0.974;2023-08-30T11:22:02;23.20;99.90
67379;DHT22;54262;44.642;-0.974;2023-08-30T11:24:28;23.30;99.90
67379;DHT22;54262;44.642;-0.974;2023-08-30T11:26:54;23.40;99.90
67379;DHT22;54262;44.642;-0.974;2023-08-30T11:29:20;23.40;99.90
67379;DHT22;54262;44.642;-0.974;2023-08-30T11:31:46;23.40;99.90
67379;DHT22;54262;44.642;-0.974;2023-08-30T11:34:12;23.30;99.90
67379;DHT22;54262;44.642;-0.974;2023-08-30T11:36:41;23.20;99.90
67379;DHT22;54262;44.642;-0.974;2023-08-30T11:39:07;23.30;99.90
67379;DHT22;54262;44.642;-0.974;2023-08-30T11:41:32;23.30;99.90
67379;DHT22;54262;44.642;-0.974;2023-08-30T11:43:59;23.30;99.90
67379;DHT22;54262;44.642;-0.974;2023-08-30T11:46:24;23.40;99.90
67379;DHT22;54262;44.642;-0.974;2023-08-30T11:54:04;23.40;99.90
67379;DHT22;54262;44.642;-0.974;2023-08-30T11:56:30;23.40;99.90
67379;DHT22;54262;44.642;-0.974;2023-08-30T11:58:56;23.40;99.90
67379;DHT22;54262;44.642;-0.974;2023-08-30T12:01:21;23.40;99.90
67379;DHT22;54262;44.642;-0.974;2023-08-30T12:03:47;23.40;99.90
67379;DHT22;54262;44.642;-0.974;2023-08-30T12:06:16;23.40;99.90
67379;DHT22;54262;44.642;-0.974;2023-08-30T12:08:42;23.30;99.90
67379;DHT22;54262;44.642;-0.974;2023-08-30T12:11:20;23.30;99.90
67379;DHT22;54262;44.642;-0.974;2023-08-30T12:13:46;23.20;99.90
67379;DHT22;54262;44.642;-0.974;2023-08-30T12:16:18;23.20;99.90
67379;DHT22;54262;44.642;-0.974;2023-08-30T12:18:46;23.30;99.90
67379;DHT22;54262;44.642;-0.974;2023-08-30T12:21:13;23.20;99.90
67379;DHT22;54262;44.642;-0.974;2023-08-30T12:23:39;23.20;99.90
67379;DHT22;54262;44.642;-0.974;2023-08-30T12:26:12;23.20;99.90
67379;DHT22;54262;44.642;-0.974;2023-08-30T12:28:39;23.20;99.90
67379;DHT22;54262;44.642;-0.974;2023-08-30T12:31:06;23.30;99.90
67379;DHT22;54262;44.642;-0.974;2023-08-30T12:33:33;23.30;99.90
67379;DHT22;54262;44.642;-0.974;2023-08-30T12:36:00;23.30;99.90
67379;DHT22;54262;44.642;-0.974;2023-08-30T12:38:26;23.20;99.90
67379;DHT22;54262;44.642;-0.974;2023-08-30T12:40:53;23.30;99.90
67379;DHT22;54262;44.642;-0.974;2023-08-30T12:43:20;23.30;99.90
67379;DHT22;54262;44.642;-0.974;2023-08-30T12:45:46;23.30;99.90
67379;DHT22;54262;44.642;-0.974;2023-08-30T12:48:13;23.20;99.90
67379;DHT22;54262;44.642;-0.974;2023-08-30T12:50:44;23.20;99.90
67379;DHT22;54262;44.642;-0.974;2023-08-30T12:53:10;23.10;99.90
67379;DHT22;54262;44.642;-0.974;2023-08-30T12:55:35;23.00;99.90
67379;DHT22;54262;44.642;-0.974;2023-08-30T12:58:02;22.90;99.90
67379;DHT22;54262;44.642;-0.974;2023-08-30T13:00:28;22.50;99.90
67379;DHT22;54262;44.642;-0.974;2023-08-30T13:02:54;22.10;99.90
67379;DHT22;54262;44.642;-0.974;2023-08-30T13:05:20;21.40;99.90
67379;DHT22;54262;44.642;-0.974;2023-08-30T13:07:47;21.00;99.90
67379;DHT22;54262;44.642;-0.974;2023-08-30T13:10:12;20.80;99.90
67379;DHT22;54262;44.642;-0.974;2023-08-30T13:12:38;21.30;99.90
67379;DHT22;54262;44.642;-0.974;2023-08-30T13:15:04;21.30;99.90
67379;DHT22;54262;44.642;-0.974;2023-08-30T13:17:33;21.20;99.90
67379;DHT22;54262;44.642;-0.974;2023-08-30T13:20:01;21.20;99.90
67379;DHT22;54262;44.642;-0.974;2023-08-30T13:22:27;21.10;99.90
67379;DHT22;54262;44.642;-0.974;2023-08-30T13:24:53;21.30;99.90
67379;DHT22;54262;44.642;-0.974;2023-08-30T13:27:19;21.60;99.90
67379;DHT22;54262;44.642;-0.974;2023-08-30T13:29:45;21.80;99.90
67379;DHT22;54262;44.642;-0.974;2023-08-30T13:32:11;21.70;99.90
67379;DHT22;54262;44.642;-0.974;2023-08-30T13:34:37;21.90;99.90
67379;DHT22;54262;44.642;-0.974;2023-08-30T13:37:03;21.70;99.90
67379;DHT22;54262;44.642;-0.974;2023-08-30T13:39:29;22.00;99.90
67379;DHT22;54262;44.642;-0.974;2023-08-30T13:41:54;22.00;99.90
67379;DHT22;54262;44.642;-0.974;2023-08-30T13:44:20;22.00;99.90
67379;DHT22;54262;44.642;-0.974;2023-08-30T13:46:46;22.10;99.90
67379;DHT22;54262;44.642;-0.974;2023-08-30T13:49:15;22.20;99.90
67379;DHT22;54262;44.642;-0.974;2023-08-30T13:51:41;22.30;99.90
67379;DHT22;54262;44.642;-0.974;2023-08-30T13:54:07;21.90;99.90
67379;DHT22;54262;44.642;-0.974;2023-08-30T13:56:32;21.50;99.90
67379;DHT22;54262;44.642;-0.974;2023-08-30T13:58:58;21.60;99.90
67379;DHT22;54262;44.642;-0.974;2023-08-30T14:01:24;21.60;99.90
67379;DHT22;54262;44.642;-0.974;2023-08-30T14:03:49;21.60;99.90
67379;DHT22;54262;44.642;-0.974;2023-08-30T14:06:15;21.60;99.90
67379;DHT22;54262;44.642;-0.974;2023-08-30T14:08:41;21.70;99.90
67379;DHT22;54262;44.642;-0.974;2023-08-30T14:11:07;21.40;99.90
67379;DHT22;54262;44.642;-0.974;2023-08-30T14:13:32;21.50;99.90
67379;DHT22;54262;44.642;-0.974;2023-08-30T14:16:04;21.60;99.90
67379;DHT22;54262;44.642;-0.974;2023-08-30T14:18:32;21.80;99.90
67379;DHT22;54262;44.642;-0.974;2023-08-30T14:21:05;21.90;99.90
67379;DHT22;54262;44.642;-0.974;2023-08-30T14:23:37;22.00;99.90
67379;DHT22;54262;44.642;-0.974;2023-08-30T14:26:04;22.10;99.90
67379;DHT22;54262;44.642;-0.974;2023-08-30T14:28:39;22.10;99.90
67379;DHT22;54262;44.642;-0.974;2023-08-30T14:31:09;22.10;99.90
67379;DHT22;54262;44.642;-0.974;2023-08-30T14:33:36;21.90;99.90
67379;DHT22;54262;44.642;-0.974;2023-08-30T14:36:02;21.90;99.90
67379;DHT22;54262;44.642;-0.974;2023-08-30T14:38:30;21.90;99.90
67379;DHT22;54262;44.642;-0.974;2023-08-30T14:40:56;21.80;99.90
67379;DHT22;54262;44.642;-0.974;2023-08-30T14:43:22;22.00;99.90
67379;DHT22;54262;44.642;-0.974;2023-08-30T14:45:48;21.70;99.90
67379;DHT22;54262;44.642;-0.974;2023-08-30T14:48:14;21.90;99.90
67379;DHT22;54262;44.642;-0.974;2023-08-30T14:50:39;21.50;99.90
67379;DHT22;54262;44.642;-0.974;2023-08-30T14:53:05;21.30;99.90
67379;DHT22;54262;44.642;-0.974;2023-08-30T14:55:32;21.40;99.90
67379;DHT22;54262;44.642;-0.974;2023-08-30T14:57:57;21.40;99.90
67379;DHT22;54262;44.642;-0.974;2023-08-30T15:00:24;21.40;99.90
67379;DHT22;54262;44.642;-0.974;2023-08-30T15:02:50;21.40;99.90
67379;DHT22;54262;44.642;-0.974;2023-08-30T15:05:15;21.30;99.90
67379;DHT22;54262;44.642;-0.974;2023-08-30T15:07:41;21.20;99.90
67379;DHT22;54262;44.642;-0.974;2023-08-30T15:10:10;21.20;99.90
67379;DHT22;54262;44.642;-0.974;2023-08-30T15:12:37;21.20;99.90
67379;DHT22;54262;44.642;-0.974;2023-08-30T15:15:03;21.20;99.90
67379;DHT22;54262;44.642;-0.974;2023-08-30T15:17:29;21.10;99.90
67379;DHT22;54262;44.642;-0.974;2023-08-30T15:19:57;21.10;99.90
67379;DHT22;54262;44.642;-0.974;2023-08-30T15:22:25;21.30;99.90
67379;DHT22;54262;44.642;-0.974;2023-08-30T15:24:50;21.30;99.90
67379;DHT22;54262;44.642;-0.974;2023-08-30T15:27:16;21.50;99.90
67379;DHT22;54262;44.642;-0.974;2023-08-30T15:29:42;21.70;99.90
67379;DHT22;54262;44.642;-0.974;2023-08-30T15:32:08;21.80;99.90
67379;DHT22;54262;44.642;-0.974;2023-08-30T15:34:34;21.80;99.90
67379;DHT22;54262;44.642;-0.974;2023-08-30T15:37:00;21.80;99.90